Terminal Aerodrome Forecast
Issued by NWS Sioux Falls, SD

Home | Current Version | Previous Version | Text Only | Print | Product List | Glossary On
Versions: 1 2 3 4 5 6 7 8 9 10 11 12 13 14 15 16 17 18 19 20 21
597
FTUS43 KFSD 102325
TAFFSD
TAF
KFSD 102325Z 1100/1124 09012KT P6SM SCT015 OVC040
     FM110500 VRB04KT P6SM BKN025
     FM110800 11005KT P6SM OVC025
     FM111500 14004KT P6SM OVC015
     FM111800 17010KT 3SM -SN BR OVC012=

USA.gov is the U.S. government's official web portal to all federal, state and local government web resources and services.